createdAt,value
2018-07-28T00:02:21.204Z,16.00
2018-07-28T00:04:49.433Z,14.73
2018-07-28T00:07:17.661Z,15.97
2018-07-28T00:09:45.901Z,15.70
2018-07-28T00:12:14.145Z,15.47
2018-07-28T00:14:42.378Z,17.20
2018-07-28T00:17:10.602Z,16.07
2018-07-28T00:19:38.814Z,16.53
2018-07-28T00:22:07.038Z,16.67
2018-07-28T00:24:35.253Z,16.07
2018-07-28T00:27:03.490Z,17.77
2018-07-28T00:29:31.706Z,16.87
2018-07-28T00:32:00.070Z,17.47
2018-07-28T00:34:28.287Z,16.33
2018-07-28T00:36:56.543Z,17.03
2018-07-28T00:39:24.767Z,16.20
2018-07-28T00:41:52.969Z,14.50
2018-07-28T00:44:21.171Z,15.23
2018-07-28T00:46:49.378Z,15.63
2018-07-28T00:49:17.569Z,15.50
2018-07-28T00:51:45.778Z,15.23
2018-07-28T00:54:14.012Z,16.50
2018-07-28T00:56:43.286Z,15.87
2018-07-28T00:59:11.492Z,15.93
2018-07-28T01:01:39.750Z,16.67
2018-07-28T01:04:07.967Z,16.47
2018-07-28T01:06:36.170Z,16.80
2018-07-28T01:09:07.038Z,15.57
2018-07-28T01:11:35.238Z,16.60
2018-07-28T01:14:03.593Z,16.20
2018-07-28T01:16:31.782Z,16.20
2018-07-28T01:18:59.977Z,16.63
2018-07-28T01:21:28.290Z,16.70
2018-07-28T01:23:56.543Z,16.50
2018-07-28T01:26:24.755Z,17.37
2018-07-28T01:28:58.260Z,17.53
2018-07-28T01:31:26.534Z,17.63
2018-07-28T01:33:54.736Z,18.10
2018-07-28T01:36:22.950Z,18.33
2018-07-28T01:38:51.181Z,19.80
2018-07-28T01:41:19.442Z,17.50
2018-07-28T01:43:47.666Z,16.93
2018-07-28T01:46:15.861Z,17.13
2018-07-28T01:48:44.350Z,15.73
2018-07-28T01:51:12.577Z,17.20
2018-07-28T01:53:40.839Z,16.27
2018-07-28T01:56:09.429Z,16.83
2018-07-28T01:58:37.635Z,16.80
2018-07-28T02:01:05.841Z,17.23
2018-07-28T02:03:34.039Z,17.43
2018-07-28T02:06:02.248Z,17.73
2018-07-28T02:08:30.454Z,18.07
2018-07-28T02:10:58.653Z,16.87
2018-07-28T02:13:26.870Z,18.13
2018-07-28T02:15:55.082Z,18.60
2018-07-28T02:18:23.282Z,18.70
2018-07-28T02:20:51.493Z,19.67
2018-07-28T02:23:19.677Z,20.93
2018-07-28T02:25:47.877Z,19.90
2018-07-28T02:28:16.086Z,19.57
2018-07-28T02:30:44.311Z,19.60
2018-07-28T02:33:12.527Z,20.80
2018-07-28T02:35:40.727Z,21.67
2018-07-28T02:38:08.926Z,21.50
2018-07-28T02:40:37.130Z,22.20
2018-07-28T02:43:05.396Z,21.10
2018-07-28T02:45:33.617Z,21.13
2018-07-28T02:48:01.839Z,20.70
2018-07-28T02:50:30.043Z,20.37
2018-07-28T02:52:58.342Z,20.40
2018-07-28T02:55:26.566Z,22.30
2018-07-28T02:57:54.796Z,23.70
2018-07-28T03:00:23.013Z,22.00
2018-07-28T03:02:51.195Z,22.77
2018-07-28T03:05:19.398Z,22.50
2018-07-28T03:07:47.670Z,21.67
2018-07-28T03:10:15.877Z,22.53
2018-07-28T03:12:44.110Z,21.50
2018-07-28T03:16:27.766Z,21.10
2018-07-28T03:18:55.986Z,21.00
2018-07-28T03:21:24.199Z,20.87
2018-07-28T03:23:52.399Z,19.50
2018-07-28T03:26:21.690Z,20.10
2018-07-28T03:28:49.889Z,21.70
2018-07-28T03:31:18.097Z,20.17
2018-07-28T03:33:46.306Z,20.97
2018-07-28T03:36:14.498Z,19.20
2018-07-28T03:38:42.723Z,21.10
2018-07-28T03:41:10.922Z,20.67
2018-07-28T03:43:39.618Z,20.10
2018-07-28T03:46:07.971Z,19.20
2018-07-28T03:48:36.157Z,19.47
2018-07-28T03:51:04.375Z,22.23
2018-07-28T03:53:32.574Z,22.97
2018-07-28T03:56:00.785Z,21.80
2018-07-28T03:58:29.011Z,20.50
2018-07-28T04:00:57.219Z,20.53
2018-07-28T04:03:25.446Z,21.20
2018-07-28T04:05:53.638Z,22.17
2018-07-28T04:08:21.849Z,21.80
2018-07-28T04:10:50.056Z,21.57
2018-07-28T04:13:18.262Z,22.07
2018-07-28T04:15:46.462Z,21.00
2018-07-28T04:18:14.654Z,20.83
2018-07-28T04:20:42.873Z,20.63
2018-07-28T04:23:11.100Z,21.20
2018-07-28T04:25:39.326Z,20.30
2018-07-28T04:28:07.542Z,20.67
2018-07-28T04:30:35.730Z,22.57
2018-07-28T04:33:03.943Z,19.93
2018-07-28T04:35:32.178Z,20.13
2018-07-28T04:38:00.406Z,19.40
2018-07-28T04:40:28.602Z,21.63
2018-07-28T04:42:56.798Z,19.97
2018-07-28T04:45:25.012Z,19.40
2018-07-28T04:47:53.205Z,19.60
2018-07-28T04:50:21.425Z,18.83
2018-07-28T04:52:49.665Z,18.53
2018-07-28T04:55:17.863Z,18.90
2018-07-28T04:57:46.361Z,19.90
2018-07-28T05:00:14.550Z,18.07
2018-07-28T05:02:42.786Z,18.50
2018-07-28T05:05:10.986Z,19.10
2018-07-28T05:07:39.308Z,18.10
2018-07-28T05:10:07.389Z,18.77
2018-07-28T05:12:35.607Z,19.20
2018-07-28T05:15:03.873Z,19.10
2018-07-28T05:17:32.065Z,17.77
2018-07-28T05:20:00.269Z,18.30
2018-07-28T05:22:28.469Z,17.30
2018-07-28T05:24:56.718Z,17.80
2018-07-28T05:27:24.930Z,17.30
2018-07-28T05:29:53.130Z,17.37
2018-07-28T05:32:21.349Z,17.70
2018-07-28T05:34:49.560Z,17.03
2018-07-28T05:37:17.758Z,16.97
2018-07-28T05:39:45.962Z,17.00
2018-07-28T05:42:14.193Z,16.83
2018-07-28T05:44:42.371Z,17.07
2018-07-28T05:47:10.582Z,17.80
2018-07-28T05:49:38.800Z,16.93
2018-07-28T05:52:07.309Z,17.03
2018-07-28T05:54:35.528Z,17.70
2018-07-28T05:57:03.770Z,18.13
2018-07-28T05:59:32.000Z,18.93
2018-07-28T06:02:00.219Z,17.30
2018-07-28T06:04:28.454Z,17.40
2018-07-28T06:06:56.658Z,18.70
2018-07-28T06:09:24.895Z,17.40
2018-07-28T06:11:53.099Z,16.83
2018-07-28T06:14:21.290Z,16.80
2018-07-28T06:16:49.498Z,16.60
2018-07-28T06:19:17.767Z,17.30
2018-07-28T06:21:45.977Z,17.80
2018-07-28T06:24:14.209Z,15.90
2018-07-28T06:26:42.562Z,16.33
2018-07-28T06:29:10.794Z,17.10
2018-07-28T06:31:39.092Z,16.50
2018-07-28T06:34:07.254Z,16.50
2018-07-28T06:36:35.554Z,16.40
2018-07-28T06:39:04.402Z,15.80
2018-07-28T06:41:32.626Z,15.40
2018-07-28T06:44:00.833Z,16.30
2018-07-28T06:46:29.063Z,16.00
2018-07-28T06:48:57.277Z,15.20
2018-07-28T06:51:25.577Z,15.63
2018-07-28T06:53:53.786Z,17.20
2018-07-28T06:56:22.008Z,16.50
2018-07-28T06:58:50.287Z,16.93
2018-07-28T07:01:18.710Z,16.43
2018-07-28T07:03:46.994Z,16.83
2018-07-28T07:06:15.193Z,17.47
2018-07-28T07:08:43.416Z,16.43
2018-07-28T07:11:11.623Z,16.03
2018-07-28T07:13:39.893Z,17.17
2018-07-28T07:16:08.097Z,15.03
2018-07-28T07:18:36.346Z,14.77
2018-07-28T07:21:04.559Z,15.37
2018-07-28T07:23:32.749Z,15.23
2018-07-28T07:26:00.974Z,13.60
2018-07-28T07:28:29.165Z,13.67
2018-07-28T07:30:57.388Z,14.70
2018-07-28T07:33:25.593Z,14.90
2018-07-28T07:35:54.174Z,15.73
2018-07-28T07:38:22.389Z,14.03
2018-07-28T07:40:50.586Z,15.30
2018-07-28T07:43:18.826Z,14.03
2018-07-28T07:45:47.070Z,13.90
2018-07-28T07:48:15.272Z,14.70
2018-07-28T07:50:43.502Z,14.20
2018-07-28T07:53:11.698Z,14.00
2018-07-28T07:55:39.898Z,14.57
2018-07-28T07:58:08.166Z,14.73
2018-07-28T08:00:36.382Z,13.70
2018-07-28T08:03:04.611Z,13.73
2018-07-28T08:05:32.818Z,13.80
2018-07-28T08:08:01.010Z,13.23
2018-07-28T08:10:29.239Z,12.93
2018-07-28T08:12:57.453Z,13.67
2018-07-28T08:15:25.675Z,13.30
2018-07-28T08:17:53.887Z,13.33
2018-07-28T08:20:22.106Z,12.53
2018-07-28T08:22:50.343Z,13.13
2018-07-28T08:25:18.559Z,12.57
2018-07-28T08:27:46.814Z,12.70
2018-07-28T08:30:15.090Z,13.33
2018-07-28T08:32:43.289Z,13.67
2018-07-28T08:35:11.511Z,13.67
2018-07-28T08:37:39.747Z,13.20
2018-07-28T08:40:08.065Z,13.80
2018-07-28T08:42:36.249Z,14.57
2018-07-28T08:45:04.871Z,14.03
2018-07-28T08:47:33.095Z,13.83
2018-07-28T08:50:01.294Z,14.00
2018-07-28T08:52:29.514Z,14.90
2018-07-28T08:54:57.722Z,13.53
2018-07-28T08:57:25.915Z,15.60
2018-07-28T08:59:54.177Z,15.00
2018-07-28T09:02:22.394Z,15.60
2018-07-28T09:04:50.618Z,17.43
2018-07-28T09:07:18.821Z,14.77
2018-07-28T09:09:47.349Z,15.70
2018-07-28T09:12:15.672Z,13.90
2018-07-28T09:14:43.890Z,15.57
2018-07-28T09:17:12.106Z,15.20
2018-07-28T09:19:40.328Z,15.03
2018-07-28T09:22:08.531Z,14.90
2018-07-28T09:24:36.760Z,15.00
2018-07-28T09:27:05.135Z,15.37
2018-07-28T09:29:33.370Z,15.17
2018-07-28T09:32:01.562Z,14.80
2018-07-28T09:34:29.822Z,15.10
2018-07-28T09:36:58.089Z,16.13
2018-07-28T09:39:26.273Z,15.57
2018-07-28T09:41:54.922Z,15.50
2018-07-28T09:44:23.124Z,15.27
2018-07-28T09:46:51.402Z,15.07
2018-07-28T09:49:19.636Z,14.40
2018-07-28T09:51:47.925Z,15.10
2018-07-28T09:54:16.142Z,14.33
2018-07-28T09:56:44.346Z,15.10
2018-07-28T09:59:12.594Z,13.20
2018-07-28T10:01:40.899Z,13.80
2018-07-28T10:04:09.098Z,14.10
2018-07-28T10:06:37.474Z,13.60
2018-07-28T10:09:09.038Z,13.17
2018-07-28T10:11:37.234Z,13.60
2018-07-28T10:14:05.482Z,13.93
2018-07-28T10:16:33.678Z,12.67
2018-07-28T10:19:01.895Z,12.80
2018-07-28T10:21:30.085Z,14.20
2018-07-28T10:23:58.312Z,12.27
2018-07-28T10:26:26.551Z,12.90
2018-07-28T10:28:54.741Z,12.57
2018-07-28T10:31:22.953Z,13.30
2018-07-28T10:33:51.218Z,13.20
2018-07-28T10:36:19.521Z,11.67
2018-07-28T10:38:47.647Z,11.70
2018-07-28T10:41:15.850Z,11.33
2018-07-28T10:43:44.059Z,11.10
2018-07-28T10:46:12.355Z,10.83
2018-07-28T10:48:40.590Z,11.10
2018-07-28T10:51:08.793Z,11.03
2018-07-28T10:53:36.982Z,9.77
2018-07-28T10:56:05.218Z,10.47
2018-07-28T10:58:33.422Z,11.30
2018-07-28T11:01:01.658Z,10.40
2018-07-28T11:03:29.855Z,9.47
2018-07-28T11:05:58.039Z,9.10
2018-07-28T11:08:26.258Z,10.10
2018-07-28T11:10:55.311Z,9.43
2018-07-28T11:13:23.554Z,8.60
2018-07-28T11:15:51.774Z,9.63
2018-07-28T11:18:19.966Z,9.00
2018-07-28T11:20:48.182Z,9.53
2018-07-28T11:23:27.766Z,8.73
2018-07-28T11:25:55.978Z,9.17
2018-07-28T11:28:24.266Z,9.70
2018-07-28T11:30:52.504Z,9.93
2018-07-28T11:33:32.006Z,9.50
2018-07-28T11:36:11.497Z,9.90
2018-07-28T11:38:50.969Z,9.67
2018-07-28T11:41:30.497Z,9.57
2018-07-28T11:44:10.078Z,10.10
2018-07-28T11:46:38.287Z,10.70
2018-07-28T11:49:06.544Z,11.10
2018-07-28T11:51:34.772Z,10.67
2018-07-28T11:54:03.008Z,10.23
2018-07-28T11:56:31.209Z,10.60
2018-07-28T11:58:59.775Z,10.67
2018-07-28T12:01:28.011Z,11.20
2018-07-28T12:03:56.273Z,11.10
2018-07-28T12:06:24.466Z,10.60
2018-07-28T12:08:52.670Z,11.70
2018-07-28T12:11:20.915Z,11.80
2018-07-28T12:13:49.252Z,11.33
2018-07-28T12:16:17.456Z,11.70
2018-07-28T12:18:45.762Z,10.30
2018-07-28T12:21:14.010Z,11.80
2018-07-28T12:23:42.207Z,11.07
2018-07-28T12:26:10.454Z,11.87
2018-07-28T12:28:38.702Z,10.33
2018-07-28T12:31:06.922Z,11.80
2018-07-28T12:33:35.125Z,10.80
2018-07-28T12:36:03.347Z,10.67
2018-07-28T12:38:31.569Z,10.20
2018-07-28T12:40:59.824Z,10.73
2018-07-28T12:43:28.059Z,10.33
2018-07-28T12:45:56.322Z,10.90
2018-07-28T12:48:24.550Z,10.90
2018-07-28T12:50:53.042Z,10.87
2018-07-28T12:53:21.234Z,13.50
2018-07-28T12:55:50.511Z,14.27
2018-07-28T12:58:18.705Z,13.63
2018-07-28T13:00:46.926Z,15.37
2018-07-28T13:03:15.198Z,15.53
2018-07-28T13:05:43.425Z,20.60
2018-07-28T13:08:11.647Z,16.97
2018-07-28T13:10:39.861Z,14.57
2018-07-28T13:13:08.230Z,15.20
2018-07-28T13:15:36.438Z,14.40
2018-07-28T13:18:04.670Z,15.40
2018-07-28T13:20:32.890Z,18.13
2018-07-28T13:23:01.134Z,16.93
2018-07-28T13:25:29.346Z,16.10
2018-07-28T13:27:57.557Z,17.57
2018-07-28T13:30:25.758Z,14.47
2018-07-28T13:32:53.978Z,15.50
2018-07-28T13:35:22.243Z,17.37
2018-07-28T13:37:50.670Z,18.33
2018-07-28T13:40:18.918Z,17.80
2018-07-28T13:42:47.222Z,18.60
2018-07-28T13:45:15.457Z,15.43
2018-07-28T13:47:43.706Z,13.63
2018-07-28T13:50:11.909Z,14.27
2018-07-28T13:52:40.122Z,13.07
2018-07-28T13:55:08.337Z,13.93
2018-07-28T13:57:36.573Z,13.23
2018-07-28T14:00:05.849Z,14.40
2018-07-28T14:02:34.072Z,14.90
2018-07-28T14:05:02.279Z,12.23
2018-07-28T14:07:30.650Z,12.90
2018-07-28T14:09:58.854Z,12.67
2018-07-28T14:12:27.066Z,14.47
2018-07-28T14:14:55.364Z,14.80
2018-07-28T14:17:23.539Z,16.33
2018-07-28T14:19:51.742Z,14.37
2018-07-28T14:22:19.967Z,14.63
2018-07-28T14:24:48.191Z,15.70
2018-07-28T14:27:16.414Z,14.10
2018-07-28T14:29:44.639Z,14.80
2018-07-28T14:32:12.858Z,13.27
2018-07-28T14:34:41.078Z,14.20
2018-07-28T14:37:09.278Z,12.80
2018-07-28T14:39:37.527Z,13.33
2018-07-28T14:42:05.752Z,13.70
2018-07-28T14:44:33.966Z,12.70
2018-07-28T14:47:02.184Z,14.00
2018-07-28T14:49:30.397Z,13.03
2018-07-28T14:51:58.622Z,14.33
2018-07-28T14:54:26.837Z,13.00
2018-07-28T14:56:55.047Z,13.43
2018-07-28T14:59:23.270Z,13.00
2018-07-28T15:01:51.469Z,13.67
2018-07-28T15:04:19.690Z,12.70
2018-07-28T15:06:47.901Z,11.93
2018-07-28T15:09:16.102Z,13.77
2018-07-28T15:11:44.306Z,12.57
2018-07-28T15:14:12.534Z,13.10
2018-07-28T15:16:40.778Z,13.67
2018-07-28T15:19:08.971Z,12.53
2018-07-28T15:21:37.212Z,12.50
2018-07-28T15:24:05.436Z,13.40
2018-07-28T15:26:33.642Z,12.20
2018-07-28T15:29:01.864Z,13.27
2018-07-28T15:31:30.066Z,12.57
2018-07-28T15:33:58.306Z,12.93
2018-07-28T15:36:26.510Z,13.10
2018-07-28T15:38:55.788Z,12.00
2018-07-28T15:41:24.001Z,12.90
2018-07-28T15:43:52.206Z,13.27
2018-07-28T15:46:21.311Z,12.97
2018-07-28T15:48:50.008Z,13.50
2018-07-28T15:51:18.202Z,13.17
2018-07-28T15:53:46.451Z,12.33
2018-07-28T15:56:14.735Z,12.67
2018-07-28T15:58:42.881Z,13.00
2018-07-28T16:01:11.105Z,12.97
2018-07-28T16:03:39.313Z,13.80
2018-07-28T16:06:07.566Z,13.30
2018-07-28T16:08:35.761Z,13.00
2018-07-28T16:11:03.986Z,13.70
2018-07-28T16:13:32.218Z,13.17
2018-07-28T16:16:00.426Z,13.10
2018-07-28T16:18:28.646Z,12.77
2018-07-28T16:20:56.858Z,13.63
2018-07-28T16:23:25.083Z,13.63
2018-07-28T16:25:53.298Z,13.30
2018-07-28T16:28:21.510Z,13.90
2018-07-28T16:30:49.730Z,13.23
2018-07-28T16:33:17.941Z,14.40
2018-07-28T16:35:46.174Z,13.80
2018-07-28T16:38:14.416Z,14.07
2018-07-28T16:40:42.700Z,13.43
2018-07-28T16:43:10.926Z,14.33
2018-07-28T16:45:39.129Z,14.70
2018-07-28T16:48:07.373Z,14.23
2018-07-28T16:50:35.618Z,13.40
2018-07-28T16:53:03.845Z,13.80
2018-07-28T16:55:32.068Z,14.30
2018-07-28T16:58:00.275Z,14.07
2018-07-28T17:00:28.514Z,14.40
2018-07-28T17:02:56.722Z,13.60
2018-07-28T17:05:25.067Z,14.63
2018-07-28T17:08:02.907Z,13.83
2018-07-28T17:10:31.122Z,13.90
2018-07-28T17:12:59.397Z,13.37
2018-07-28T17:15:27.609Z,14.50
2018-07-28T17:17:55.830Z,14.60
2018-07-28T17:20:24.059Z,15.13
2018-07-28T17:22:52.358Z,14.67
2018-07-28T17:25:20.587Z,13.63
2018-07-28T17:27:48.882Z,15.03
2018-07-28T17:30:17.172Z,14.30
2018-07-28T17:32:45.476Z,13.57
2018-07-28T17:35:13.778Z,13.47
2018-07-28T17:37:42.074Z,13.40
2018-07-28T17:40:10.281Z,13.40
2018-07-28T17:42:38.658Z,13.53
2018-07-28T17:45:07.370Z,13.60
2018-07-28T17:47:35.678Z,14.90
2018-07-28T17:50:04.973Z,14.43
2018-07-28T17:52:33.213Z,13.50
2018-07-28T17:55:01.670Z,12.33
2018-07-28T17:57:29.879Z,13.43
2018-07-28T17:59:58.240Z,14.20
2018-07-28T18:02:26.492Z,14.20
2018-07-28T18:04:54.843Z,14.80
2018-07-28T18:07:23.159Z,13.90
2018-07-28T18:09:51.598Z,14.53
2018-07-28T18:12:19.846Z,13.67
2018-07-28T18:14:48.151Z,15.40
2018-07-28T18:17:16.462Z,15.10
2018-07-28T18:19:44.888Z,14.90
2018-07-28T18:22:13.236Z,13.80
2018-07-28T18:24:41.478Z,14.50
2018-07-28T18:27:09.890Z,14.07
2018-07-28T18:29:38.208Z,13.67
2018-07-28T18:32:06.455Z,15.50
2018-07-28T18:34:34.731Z,15.20
2018-07-28T18:37:03.026Z,14.53
2018-07-28T18:39:31.361Z,14.63
2018-07-28T18:41:59.566Z,15.00
2018-07-28T18:44:27.781Z,15.20
2018-07-28T18:46:56.087Z,14.50
2018-07-28T18:49:24.362Z,16.00
2018-07-28T18:51:52.604Z,14.57
2018-07-28T18:54:20.836Z,15.63
2018-07-28T18:56:49.237Z,16.13
2018-07-28T18:59:17.459Z,15.70
2018-07-28T19:01:45.710Z,14.80
2018-07-28T19:04:14.016Z,15.40
2018-07-28T19:06:42.290Z,15.13
2018-07-28T19:10:16.506Z,16.20
2018-07-28T19:12:50.366Z,14.90
2018-07-28T19:15:18.642Z,15.70
2018-07-28T19:17:52.295Z,14.50
2018-07-28T19:20:20.545Z,15.63
2018-07-28T19:22:53.958Z,14.07
2018-07-28T19:25:22.519Z,15.30
2018-07-28T19:27:56.086Z,16.17
2018-07-28T19:30:24.386Z,16.43
2018-07-28T19:32:52.634Z,15.40
2018-07-28T19:35:20.926Z,16.60
2018-07-28T19:37:49.168Z,15.63
2018-07-28T19:40:17.421Z,16.30
2018-07-28T19:42:50.348Z,17.30
2018-07-28T19:45:18.626Z,16.67
2018-07-28T19:47:47.174Z,14.20
2018-07-28T19:50:15.515Z,14.83
2018-07-28T19:52:43.757Z,15.17
2018-07-28T19:55:12.074Z,15.80
2018-07-28T19:57:40.277Z,14.40
2018-07-28T20:00:08.550Z,14.20
2018-07-28T20:02:36.780Z,15.30
2018-07-28T20:05:05.722Z,15.53
2018-07-28T20:07:33.997Z,17.50
2018-07-28T20:10:02.223Z,15.03
2018-07-28T20:12:30.694Z,14.53
2018-07-28T20:14:59.054Z,16.73
2018-07-28T20:17:27.813Z,16.03
2018-07-28T20:19:56.083Z,15.73
2018-07-28T20:22:24.330Z,16.83
2018-07-28T20:24:52.594Z,16.50
2018-07-28T20:27:20.858Z,16.30
2018-07-28T20:29:49.150Z,14.43
2018-07-28T20:32:17.403Z,14.67
2018-07-28T20:34:45.611Z,15.80
2018-07-28T20:37:13.866Z,16.03
2018-07-28T20:39:42.221Z,15.63
2018-07-28T20:42:10.446Z,15.80
2018-07-28T20:44:38.695Z,15.67
2018-07-28T20:47:08.354Z,16.20
2018-07-28T20:49:36.646Z,16.63
2018-07-28T20:52:04.854Z,16.43
2018-07-28T20:54:33.058Z,15.53
2018-07-28T20:57:01.283Z,15.57
2018-07-28T20:59:29.619Z,15.07
2018-07-28T21:01:57.838Z,15.50
2018-07-28T21:04:26.062Z,17.20
2018-07-28T21:06:54.298Z,16.60
2018-07-28T21:09:22.503Z,16.13
2018-07-28T21:11:50.720Z,16.73
2018-07-28T21:14:18.922Z,16.30
2018-07-28T21:16:47.112Z,14.93
2018-07-28T21:19:15.310Z,15.13
2018-07-28T21:21:43.563Z,15.13
2018-07-28T21:24:11.728Z,16.30
2018-07-28T21:26:39.935Z,15.30
2018-07-28T21:29:08.175Z,15.53
2018-07-28T21:31:36.362Z,16.60
2018-07-28T21:34:04.599Z,15.80
2018-07-28T21:36:32.859Z,16.10
2018-07-28T21:39:01.806Z,15.90
2018-07-28T21:41:30.014Z,15.10
2018-07-28T21:43:58.234Z,13.03
2018-07-28T21:46:26.510Z,15.47
2018-07-28T21:48:54.730Z,14.50
2018-07-28T21:51:22.977Z,14.40
2018-07-28T21:53:51.234Z,15.07
2018-07-28T21:56:23.708Z,14.87
2018-07-28T21:58:52.611Z,14.60
2018-07-28T22:01:20.862Z,13.83
2018-07-28T22:03:49.154Z,13.50
2018-07-28T22:06:17.378Z,13.10
2018-07-28T22:08:45.612Z,13.63
2018-07-28T22:11:13.858Z,12.50
2018-07-28T22:13:42.103Z,12.97
2018-07-28T22:16:10.335Z,13.17
2018-07-28T22:18:38.564Z,12.60
2018-07-28T22:21:06.875Z,12.03
2018-07-28T22:23:35.075Z,12.80
2018-07-28T22:26:03.344Z,12.00
2018-07-28T22:28:31.560Z,11.40
2018-07-28T22:30:59.797Z,11.77
2018-07-28T22:33:28.075Z,14.33
2018-07-28T22:35:56.278Z,23.30
2018-07-28T22:38:24.502Z,13.60
2018-07-28T22:40:52.783Z,11.87
2018-07-28T22:43:20.990Z,10.70
2018-07-28T22:45:49.366Z,12.97
2018-07-28T22:48:17.578Z,11.63
2018-07-28T22:50:45.786Z,12.40
2018-07-28T22:53:14.002Z,11.00
2018-07-28T22:55:42.217Z,10.50
2018-07-28T22:58:10.440Z,10.70
2018-07-28T23:00:38.650Z,10.83
2018-07-28T23:03:06.882Z,12.10
2018-07-28T23:05:35.134Z,14.30
2018-07-28T23:08:03.398Z,11.57
2018-07-28T23:10:31.610Z,12.10
2018-07-28T23:12:59.882Z,11.70
2018-07-28T23:15:28.149Z,12.90
2018-07-28T23:17:56.358Z,11.03
2018-07-28T23:20:24.579Z,12.30
2018-07-28T23:22:52.837Z,11.80
2018-07-28T23:25:21.059Z,11.00
2018-07-28T23:27:49.295Z,12.70
2018-07-28T23:30:17.461Z,12.00
2018-07-28T23:32:45.696Z,13.27
2018-07-28T23:35:13.910Z,12.87
2018-07-28T23:37:42.134Z,14.03
2018-07-28T23:40:10.465Z,12.67
2018-07-28T23:42:38.690Z,13.07
2018-07-28T23:45:06.993Z,12.90
2018-07-28T23:47:35.270Z,11.83
2018-07-28T23:50:03.577Z,12.23
2018-07-28T23:52:30.845Z,14.80
2018-07-28T23:54:59.061Z,12.20
2018-07-28T23:57:27.318Z,12.73
2018-07-28T23:59:55.541Z,12.50
